createdAt,value
2023-11-22T00:00:08.690Z,99.99
2023-11-22T00:01:08.743Z,99.99
2023-11-22T00:02:08.714Z,99.99
2023-11-22T00:03:08.696Z,99.99
2023-11-22T00:04:08.699Z,99.99
2023-11-22T00:05:08.729Z,99.99
2023-11-22T00:06:08.704Z,99.99
2023-11-22T00:07:08.650Z,99.99
2023-11-22T00:08:08.668Z,99.99
2023-11-22T00:09:08.730Z,99.99
2023-11-22T00:10:08.626Z,99.99
2023-11-22T00:11:08.640Z,99.99
2023-11-22T00:12:08.612Z,99.99
2023-11-22T00:13:08.607Z,99.99
2023-11-22T00:14:08.736Z,99.99
2023-11-22T00:15:08.604Z,99.99
2023-11-22T00:16:08.586Z,99.99
2023-11-22T00:17:08.644Z,99.99
2023-11-22T00:18:08.649Z,99.99
2023-11-22T00:19:08.568Z,99.99
2023-11-22T00:20:08.698Z,99.99
2023-11-22T00:21:08.552Z,99.99
2023-11-22T00:22:08.546Z,99.99
2023-11-22T00:23:08.574Z,99.99
2023-11-22T00:24:08.532Z,99.99
2023-11-22T00:25:09.176Z,99.99
2023-11-22T00:26:08.536Z,99.99
2023-11-22T00:27:08.518Z,99.99
2023-11-22T00:28:08.506Z,99.99
2023-11-22T00:29:08.513Z,99.99
2023-11-22T00:30:08.499Z,99.99
2023-11-22T00:31:08.517Z,99.99
2023-11-22T00:32:08.559Z,99.99
2023-11-22T00:33:08.558Z,99.99
2023-11-22T00:34:08.475Z,99.99
2023-11-22T00:35:08.458Z,99.99
2023-11-22T00:36:08.457Z,99.99
2023-11-22T00:37:08.447Z,99.99
2023-11-22T00:38:08.467Z,99.99
2023-11-22T00:39:08.435Z,99.99
2023-11-22T00:40:08.429Z,99.99
2023-11-22T00:41:08.485Z,99.99
2023-11-22T00:42:08.426Z,99.99
2023-11-22T00:43:08.412Z,99.99
2023-11-22T00:44:08.416Z,99.99
2023-11-22T00:45:08.407Z,99.99
2023-11-22T00:46:08.434Z,99.99
2023-11-22T00:47:08.500Z,99.99
2023-11-22T00:48:08.494Z,99.99
2023-11-22T00:49:08.379Z,99.99
2023-11-22T00:50:08.458Z,99.99
2023-11-22T00:51:08.378Z,99.99
2023-11-22T00:52:08.422Z,99.99
2023-11-22T00:53:08.400Z,99.99
2023-11-22T00:54:08.350Z,99.99
2023-11-22T00:55:08.332Z,99.99
2023-11-22T00:56:08.377Z,99.99
2023-11-22T00:57:08.357Z,99.99
2023-11-22T00:58:08.316Z,99.99
2023-11-22T00:59:08.347Z,99.99
2023-11-22T01:00:08.401Z,99.99
2023-11-22T01:01:08.308Z,99.99
2023-11-22T01:02:08.337Z,99.99
2023-11-22T01:03:08.384Z,99.99
2023-11-22T01:04:08.392Z,99.99
2023-11-22T01:05:08.302Z,99.99
2023-11-22T01:06:08.283Z,99.99
2023-11-22T01:07:08.279Z,99.99
2023-11-22T01:08:08.304Z,99.99
2023-11-22T01:09:08.243Z,99.99
2023-11-22T01:10:08.248Z,99.99
2023-11-22T01:11:08.242Z,99.99
2023-11-22T01:12:08.272Z,99.99
2023-11-22T01:13:08.235Z,99.99
2023-11-22T01:14:08.412Z,99.99
2023-11-22T01:15:08.206Z,99.99
2023-11-22T01:16:08.195Z,99.99
2023-11-22T01:17:08.260Z,99.99
2023-11-22T01:18:08.211Z,99.99
2023-11-22T01:19:08.206Z,99.99
2023-11-22T01:20:08.216Z,99.99
2023-11-22T01:21:08.163Z,99.99
2023-11-22T01:22:08.170Z,99.99
2023-11-22T01:23:08.210Z,99.99
2023-11-22T01:24:08.144Z,99.99
2023-11-22T01:25:08.181Z,99.99
2023-11-22T01:26:08.164Z,99.99
2023-11-22T01:27:08.127Z,99.99
2023-11-22T01:28:08.179Z,99.99
2023-11-22T01:29:08.133Z,99.99
2023-11-22T01:30:08.103Z,99.99
2023-11-22T01:31:08.098Z,99.99
2023-11-22T01:32:08.173Z,99.99
2023-11-22T01:33:08.098Z,99.99
2023-11-22T01:34:08.443Z,99.99
2023-11-22T01:35:08.139Z,99.99
2023-11-22T01:36:08.060Z,99.99
2023-11-22T01:37:08.059Z,99.99
2023-11-22T01:38:08.083Z,99.99
2023-11-22T01:39:08.045Z,99.99
2023-11-22T01:40:08.042Z,99.99
2023-11-22T01:41:08.047Z,99.99
2023-11-22T01:42:08.026Z,99.99
2023-11-22T01:43:08.020Z,99.99
2023-11-22T01:44:08.038Z,99.99
2023-11-22T01:45:08.008Z,99.99
2023-11-22T01:46:08.036Z,99.99
2023-11-22T01:47:08.034Z,99.99
2023-11-22T01:48:08.040Z,99.99
2023-11-22T01:49:07.982Z,99.99
2023-11-22T01:50:08.194Z,99.99
2023-11-22T01:51:07.971Z,99.99
2023-11-22T01:52:07.965Z,99.99
2023-11-22T01:53:08.045Z,99.99
2023-11-22T01:54:07.951Z,99.99
2023-11-22T01:55:08.202Z,99.99
2023-11-22T01:56:07.985Z,99.99
2023-11-22T01:57:07.940Z,99.99
2023-11-22T01:58:07.931Z,99.99
2023-11-22T01:59:08.017Z,99.99
2023-11-22T02:00:08.039Z,99.99
2023-11-22T02:01:07.925Z,99.99
2023-11-22T02:02:07.995Z,99.99
2023-11-22T02:03:08.089Z,99.99
2023-11-22T02:04:08.009Z,99.99
2023-11-22T02:05:07.908Z,99.99
2023-11-22T02:06:07.882Z,99.99
2023-11-22T02:07:07.876Z,99.99
2023-11-22T02:08:07.902Z,99.99
2023-11-22T02:09:07.857Z,99.99
2023-11-22T02:10:07.849Z,99.99
2023-11-22T02:11:07.868Z,99.99
2023-11-22T02:12:07.840Z,99.99
2023-11-22T02:13:07.835Z,99.99
2023-11-22T02:14:07.861Z,99.99
2023-11-22T02:15:07.819Z,99.99
2023-11-22T02:16:07.844Z,99.99
2023-11-22T02:17:07.863Z,99.99
2023-11-22T02:18:12.990Z,99.99
2023-11-22T02:19:07.795Z,99.99
2023-11-22T02:20:07.830Z,99.99
2023-11-22T02:21:07.788Z,99.99
2023-11-22T02:22:07.778Z,99.99
2023-11-22T02:23:07.788Z,99.99
2023-11-22T02:24:07.764Z,99.99
2023-11-22T02:25:07.757Z,99.99
2023-11-22T02:26:07.795Z,99.99
2023-11-22T02:27:07.761Z,99.99
2023-11-22T02:28:07.742Z,99.99
2023-11-22T02:29:07.823Z,99.99
2023-11-22T02:30:07.733Z,99.99
2023-11-22T02:31:07.728Z,99.99
2023-11-22T02:32:07.752Z,99.99
2023-11-22T02:33:07.735Z,99.99
2023-11-22T02:34:07.707Z,99.99
2023-11-22T02:35:07.711Z,99.99
2023-11-22T02:36:07.690Z,99.99
2023-11-22T02:37:07.687Z,99.99
2023-11-22T02:38:07.717Z,99.99
2023-11-22T02:39:07.776Z,99.99
2023-11-22T02:40:07.668Z,99.99
2023-11-22T02:41:07.710Z,99.99
2023-11-22T02:42:07.756Z,99.99
2023-11-22T02:43:07.647Z,99.99
2023-11-22T02:44:07.655Z,99.99
2023-11-22T02:45:07.635Z,99.99
2023-11-22T02:46:07.660Z,99.99
2023-11-22T02:47:07.649Z,99.99
2023-11-22T02:48:07.661Z,99.99
2023-11-22T02:49:07.610Z,99.99
2023-11-22T02:50:07.701Z,99.99
2023-11-22T02:51:07.599Z,99.99
2023-11-22T02:52:07.593Z,99.99
2023-11-22T02:53:07.604Z,99.99
2023-11-22T02:54:07.581Z,99.99
2023-11-22T02:55:07.575Z,99.99
2023-11-22T02:56:07.596Z,99.99
2023-11-22T02:57:07.559Z,99.99
2023-11-22T02:58:07.633Z,99.99
2023-11-22T02:59:07.566Z,99.99
2023-11-22T03:00:07.542Z,99.99
2023-11-22T03:01:07.535Z,99.99
2023-11-22T03:02:07.552Z,99.99
2023-11-22T03:03:07.688Z,99.99
2023-11-22T03:04:07.561Z,99.99
2023-11-22T03:05:07.544Z,99.99
2023-11-22T03:06:07.514Z,99.99
2023-11-22T03:07:07.496Z,99.99
2023-11-22T03:08:07.568Z,99.99
2023-11-22T03:09:07.487Z,99.99
2023-11-22T03:10:07.487Z,99.99
2023-11-22T03:11:07.484Z,99.99
2023-11-22T03:12:07.487Z,99.99
2023-11-22T03:13:07.564Z,99.99
2023-11-22T03:14:07.513Z,99.99
2023-11-22T03:15:07.454Z,99.99
2023-11-22T03:16:07.466Z,99.99
2023-11-22T03:17:07.482Z,99.99
2023-11-22T03:18:07.575Z,99.99
2023-11-22T03:19:07.428Z,99.99
2023-11-22T03:20:07.453Z,99.99
2023-11-22T03:21:07.419Z,99.99
2023-11-22T03:22:07.414Z,99.99
2023-11-22T03:23:07.470Z,99.99
2023-11-22T03:24:07.400Z,99.99
2023-11-22T03:25:07.391Z,99.99
2023-11-22T03:26:07.428Z,99.99
2023-11-22T03:27:07.390Z,99.99
2023-11-22T03:28:07.396Z,99.99
2023-11-22T03:29:07.431Z,99.99
2023-11-22T03:30:09.167Z,99.99
2023-11-22T03:31:07.355Z,99.99
2023-11-22T03:32:07.364Z,99.99
2023-11-22T03:33:07.494Z,99.99
2023-11-22T03:34:07.420Z,99.99
2023-11-22T03:35:07.458Z,99.99
2023-11-22T03:36:07.328Z,99.99
2023-11-22T03:37:07.317Z,99.99
2023-11-22T03:38:07.333Z,99.99
2023-11-22T03:39:07.311Z,99.99
2023-11-22T03:40:07.298Z,99.99
2023-11-22T03:41:07.334Z,99.99
2023-11-22T03:42:07.287Z,99.99
2023-11-22T03:43:07.280Z,99.99
2023-11-22T03:44:07.357Z,99.99
2023-11-22T03:45:07.268Z,99.99
2023-11-22T03:46:07.262Z,99.99
2023-11-22T03:47:07.306Z,99.99
2023-11-22T03:48:07.441Z,99.99
2023-11-22T03:49:07.283Z,99.99
2023-11-22T03:50:07.265Z,99.99
2023-11-22T03:51:07.230Z,99.99
2023-11-22T03:52:07.235Z,99.99
2023-11-22T03:53:07.257Z,99.99
2023-11-22T03:54:07.263Z,99.99
2023-11-22T03:55:07.210Z,99.99
2023-11-22T03:56:07.236Z,99.99
2023-11-22T03:57:07.192Z,99.99
2023-11-22T03:58:07.188Z,99.99
2023-11-22T03:59:07.190Z,99.99
2023-11-22T04:00:07.259Z,99.99
2023-11-22T04:01:07.194Z,99.99
2023-11-22T04:02:07.176Z,99.99
2023-11-22T04:03:07.214Z,99.99
2023-11-22T04:04:07.198Z,99.99
2023-11-22T04:05:07.169Z,99.99
2023-11-22T04:06:07.148Z,99.99
2023-11-22T04:07:07.133Z,99.99
2023-11-22T04:08:07.269Z,99.99
2023-11-22T04:09:07.125Z,99.99
2023-11-22T04:10:07.133Z,99.99
2023-11-22T04:11:07.143Z,99.99
2023-11-22T04:12:07.102Z,99.99
2023-11-22T04:13:07.124Z,99.99
2023-11-22T04:14:07.111Z,99.99
2023-11-22T04:15:07.086Z,99.99
2023-11-22T04:16:07.078Z,99.99
2023-11-22T04:17:07.234Z,99.99
2023-11-22T04:18:07.142Z,99.99
2023-11-22T04:19:07.060Z,99.99
2023-11-22T04:20:07.080Z,99.99
2023-11-22T04:21:07.055Z,99.99
2023-11-22T04:22:07.054Z,99.99
2023-11-22T04:23:07.168Z,99.99
2023-11-22T04:24:07.028Z,99.99
2023-11-22T04:25:07.034Z,99.99
2023-11-22T04:26:07.053Z,99.99
2023-11-22T04:27:07.014Z,99.99
2023-11-22T04:28:07.004Z,99.99
2023-11-22T04:29:07.022Z,99.99
2023-11-22T04:30:06.995Z,99.99
2023-11-22T04:31:06.997Z,99.99
2023-11-22T04:32:07.046Z,99.99
2023-11-22T04:33:07.074Z,99.99
2023-11-22T04:34:07.005Z,99.99
2023-11-22T04:35:06.994Z,99.99
2023-11-22T04:36:06.954Z,99.99
2023-11-22T04:37:06.947Z,99.99
2023-11-22T04:38:07.064Z,99.99
2023-11-22T04:39:06.937Z,99.99
2023-11-22T04:40:06.930Z,99.99
2023-11-22T04:41:06.957Z,99.99
2023-11-22T04:42:06.916Z,99.99
2023-11-22T04:43:06.915Z,99.99
2023-11-22T04:44:06.916Z,99.99
2023-11-22T04:45:06.910Z,99.99
2023-11-22T04:46:06.892Z,99.99
2023-11-22T04:47:06.956Z,99.99
2023-11-22T04:48:06.929Z,99.99
2023-11-22T04:49:06.873Z,99.99
2023-11-22T04:50:06.942Z,99.99
2023-11-22T04:51:06.870Z,99.99
2023-11-22T04:52:06.863Z,99.99
2023-11-22T04:53:06.886Z,99.99
2023-11-22T04:54:06.846Z,99.99
2023-11-22T04:55:06.840Z,99.99
2023-11-22T04:56:06.840Z,99.99
2023-11-22T04:57:06.826Z,99.99
2023-11-22T04:58:06.826Z,99.99
2023-11-22T04:59:06.869Z,99.99
2023-11-22T05:00:06.809Z,99.99
2023-11-22T05:01:06.845Z,99.99
2023-11-22T05:02:06.870Z,99.99
2023-11-22T05:03:06.820Z,99.99
2023-11-22T05:04:06.877Z,99.99
2023-11-22T05:05:06.936Z,99.99
2023-11-22T05:06:06.781Z,99.99
2023-11-22T05:07:06.775Z,99.99
2023-11-22T05:08:06.809Z,99.99
2023-11-22T05:09:06.771Z,99.99
2023-11-22T05:10:06.752Z,99.99
2023-11-22T05:11:06.784Z,99.99
2023-11-22T05:12:06.747Z,99.99
2023-11-22T05:13:06.736Z,99.99
2023-11-22T05:14:06.736Z,99.99
2023-11-22T05:15:06.720Z,99.99
2023-11-22T05:16:06.882Z,99.99
2023-11-22T05:17:06.794Z,99.99
2023-11-22T05:18:06.705Z,99.99
2023-11-22T05:19:06.698Z,99.99
2023-11-22T05:20:06.687Z,99.99
2023-11-22T05:21:06.679Z,99.99
2023-11-22T05:22:06.782Z,99.99
2023-11-22T05:23:06.774Z,99.99
2023-11-22T05:24:06.677Z,99.99
2023-11-22T05:25:06.693Z,99.99
2023-11-22T05:26:06.663Z,99.99
2023-11-22T05:27:06.644Z,99.99
2023-11-22T05:28:06.753Z,99.99
2023-11-22T05:29:06.668Z,99.99
2023-11-22T05:30:06.742Z,99.99
2023-11-22T05:31:06.676Z,99.99
2023-11-22T05:32:06.627Z,99.99
2023-11-22T05:33:06.688Z,99.99
2023-11-22T05:34:06.698Z,99.99
2023-11-22T05:35:06.613Z,99.99
2023-11-22T05:36:06.588Z,99.99
2023-11-22T05:37:06.581Z,99.99
2023-11-22T05:38:06.604Z,99.99
2023-11-22T05:39:06.569Z,99.99
2023-11-22T05:40:06.599Z,99.99
2023-11-22T05:41:06.563Z,99.99
2023-11-22T05:42:06.549Z,99.99
2023-11-22T05:43:08.208Z,99.99
2023-11-22T05:44:06.661Z,99.99
2023-11-22T05:45:06.534Z,99.99
2023-11-22T05:46:06.607Z,99.99
2023-11-22T05:47:06.558Z,99.99
2023-11-22T05:48:06.528Z,99.99
2023-11-22T05:49:07.802Z,99.99
2023-11-22T05:50:06.594Z,99.99
2023-11-22T05:51:06.574Z,99.99
2023-11-22T05:52:06.490Z,99.99
2023-11-22T05:53:06.505Z,99.99
2023-11-22T05:54:06.513Z,99.99
2023-11-22T05:55:06.471Z,99.99
2023-11-22T05:56:07.853Z,99.99
2023-11-22T05:57:06.461Z,99.99
2023-11-22T05:58:06.453Z,99.99
2023-11-22T05:59:06.513Z,99.99
2023-11-22T06:00:06.446Z,99.99
2023-11-22T06:01:06.435Z,99.99
2023-11-22T06:02:06.459Z,99.99
2023-11-22T06:03:06.452Z,99.99
2023-11-22T06:04:06.584Z,99.99
2023-11-22T06:05:06.462Z,99.99
2023-11-22T06:06:06.432Z,99.99
2023-11-22T06:07:06.409Z,99.99
2023-11-22T06:08:06.412Z,99.99
2023-11-22T06:09:06.406Z,99.99
2023-11-22T06:10:06.388Z,99.99
2023-11-22T06:11:06.414Z,99.99
2023-11-22T06:12:06.387Z,99.99
2023-11-22T06:13:06.361Z,99.99
2023-11-22T06:14:06.381Z,99.99
2023-11-22T06:15:06.352Z,99.99
2023-11-22T06:16:06.364Z,99.99
2023-11-22T06:17:06.361Z,99.99
2023-11-22T06:18:06.353Z,99.99
2023-11-22T06:19:06.324Z,99.99
2023-11-22T06:20:06.376Z,99.99
2023-11-22T06:21:06.313Z,99.99
2023-11-22T06:22:06.307Z,99.99
2023-11-22T06:23:06.333Z,99.99
2023-11-22T06:24:06.293Z,99.99
2023-11-22T06:25:06.289Z,99.99
2023-11-22T06:26:06.323Z,99.99
2023-11-22T06:27:06.278Z,99.99
2023-11-22T06:28:06.268Z,99.99
2023-11-22T06:29:06.402Z,99.99
2023-11-22T06:30:06.257Z,99.99
2023-11-22T06:31:06.251Z,99.99
2023-11-22T06:32:06.267Z,99.99
2023-11-22T06:33:06.254Z,99.99
2023-11-22T06:34:06.255Z,99.99
2023-11-22T06:35:06.250Z,99.99
2023-11-22T06:36:06.218Z,99.99
2023-11-22T06:37:06.215Z,99.99
2023-11-22T06:38:06.268Z,99.99
2023-11-22T06:39:06.309Z,99.99
2023-11-22T06:40:06.198Z,99.99
2023-11-22T06:41:06.207Z,99.99
2023-11-22T06:42:06.227Z,99.99
2023-11-22T06:43:06.178Z,99.99
2023-11-22T06:44:06.178Z,99.99
2023-11-22T06:45:06.166Z,99.99
2023-11-22T06:46:06.162Z,99.99
2023-11-22T06:47:06.178Z,99.99
2023-11-22T06:48:06.240Z,99.99
2023-11-22T06:49:06.477Z,99.99
2023-11-22T06:50:06.187Z,99.99
2023-11-22T06:51:06.126Z,99.99
2023-11-22T06:52:06.124Z,99.99
2023-11-22T06:53:06.213Z,99.99
2023-11-22T06:54:06.164Z,99.99
2023-11-22T06:55:06.104Z,99.99
2023-11-22T06:56:06.143Z,99.99
2023-11-22T06:57:06.091Z,99.99
2023-11-22T06:58:06.083Z,99.99
2023-11-22T06:59:06.203Z,99.99
2023-11-22T07:00:06.118Z,99.99
2023-11-22T07:01:06.082Z,99.99
2023-11-22T07:02:06.115Z,99.99
2023-11-22T07:03:06.183Z,99.99
2023-11-22T07:04:06.246Z,99.99
2023-11-22T07:05:06.065Z,99.99
2023-11-22T07:06:06.035Z,99.99
2023-11-22T07:07:06.035Z,99.99
2023-11-22T07:08:06.063Z,99.99
2023-11-22T07:09:06.015Z,99.99
2023-11-22T07:10:06.032Z,99.99
2023-11-22T07:11:06.025Z,99.99
2023-11-22T07:12:05.995Z,99.99
2023-11-22T07:13:06.002Z,99.99
2023-11-22T07:14:06.031Z,99.99
2023-11-22T07:15:05.985Z,99.99
2023-11-22T07:16:05.986Z,99.99
2023-11-22T07:17:05.980Z,99.99
2023-11-22T07:18:06.027Z,99.99
2023-11-22T07:19:05.952Z,99.99
2023-11-22T07:20:05.978Z,99.99
2023-11-22T07:21:05.940Z,99.99
2023-11-22T07:22:05.929Z,99.99
2023-11-22T07:23:05.945Z,99.99
2023-11-22T07:24:05.916Z,99.99
2023-11-22T07:25:06.009Z,99.99
2023-11-22T07:26:05.986Z,99.99
2023-11-22T07:27:05.902Z,99.99
2023-11-22T07:28:05.889Z,99.99
2023-11-22T07:29:05.942Z,99.99
2023-11-22T07:30:05.888Z,99.99
2023-11-22T07:31:06.196Z,99.99
2023-11-22T07:32:05.912Z,99.99
2023-11-22T07:33:05.936Z,99.99
2023-11-22T07:34:05.874Z,99.99
2023-11-22T07:35:05.969Z,99.99
2023-11-22T07:36:05.837Z,99.99
2023-11-22T07:37:05.934Z,99.99
2023-11-22T07:38:05.858Z,99.99
2023-11-22T07:39:05.819Z,99.99
2023-11-22T07:40:05.816Z,99.99
2023-11-22T07:41:05.821Z,99.99
2023-11-22T07:42:05.798Z,99.99
2023-11-22T07:43:05.893Z,99.99
2023-11-22T07:44:05.789Z,99.99
2023-11-22T07:45:05.782Z,99.99
2023-11-22T07:46:05.818Z,99.99
2023-11-22T07:47:05.769Z,99.99
2023-11-22T07:48:05.915Z,99.99
2023-11-22T07:49:05.762Z,99.99
2023-11-22T07:50:05.744Z,99.99
2023-11-22T07:51:05.740Z,99.99
2023-11-22T07:52:05.735Z,99.99
2023-11-22T07:53:05.830Z,99.99
2023-11-22T07:54:05.717Z,99.99
2023-11-22T07:55:05.712Z,99.99
2023-11-22T07:56:05.884Z,99.99
2023-11-22T07:57:05.699Z,99.99
2023-11-22T07:58:05.690Z,99.99
2023-11-22T07:59:05.686Z,99.99
2023-11-22T08:00:05.686Z,99.99
2023-11-22T08:01:05.695Z,99.99
2023-11-22T08:02:05.683Z,99.99
2023-11-22T08:03:05.772Z,99.99
2023-11-22T08:04:05.725Z,99.99
2023-11-22T08:05:05.648Z,99.99
2023-11-22T08:06:05.647Z,99.99
2023-11-22T08:07:05.636Z,99.99
2023-11-22T08:08:05.627Z,99.99
2023-11-22T08:09:05.627Z,99.99
2023-11-22T08:10:05.615Z,99.99
2023-11-22T08:11:05.638Z,99.99
2023-11-22T08:12:06.493Z,99.99
2023-11-22T08:13:05.597Z,99.99
2023-11-22T08:14:05.590Z,99.99
2023-11-22T08:15:05.588Z,99.99
2023-11-22T08:16:05.575Z,99.99
2023-11-22T08:17:05.604Z,99.99
2023-11-22T08:18:05.620Z,99.99
2023-11-22T08:19:05.658Z,99.99
2023-11-22T08:20:06.605Z,99.99
2023-11-22T08:21:05.557Z,99.99
2023-11-22T08:22:05.542Z,99.99
2023-11-22T08:23:05.535Z,99.99
2023-11-22T08:24:05.783Z,99.99
2023-11-22T08:25:05.521Z,99.99
2023-11-22T08:26:05.512Z,99.99
2023-11-22T08:27:05.508Z,99.99
2023-11-22T08:28:05.498Z,99.99
2023-11-22T08:29:05.493Z,99.99
2023-11-22T08:30:05.496Z,99.99
2023-11-22T08:31:05.730Z,99.99
2023-11-22T08:32:05.491Z,99.99
2023-11-22T08:33:05.584Z,99.99
2023-11-22T08:34:05.460Z,99.99
2023-11-22T08:35:05.457Z,99.99
2023-11-22T08:36:05.460Z,99.99
2023-11-22T08:37:05.443Z,99.99
2023-11-22T08:38:05.437Z,99.99
2023-11-22T08:39:05.446Z,99.99
2023-11-22T08:40:05.523Z,99.99
2023-11-22T08:41:05.416Z,99.99
2023-11-22T08:42:05.414Z,99.99
2023-11-22T08:43:05.409Z,99.99
2023-11-22T08:44:05.417Z,99.99
2023-11-22T08:45:05.393Z,99.99
2023-11-22T08:46:13.494Z,99.99
2023-11-22T08:47:05.444Z,99.99
2023-11-22T08:48:05.419Z,99.99
2023-11-22T08:49:05.366Z,99.99
2023-11-22T08:50:05.365Z,99.99
2023-11-22T08:51:05.368Z,99.99
2023-11-22T08:52:05.349Z,99.99
2023-11-22T08:53:05.341Z,99.99
2023-11-22T08:54:05.386Z,99.99
2023-11-22T08:55:05.442Z,99.99
2023-11-22T08:56:05.321Z,99.99
2023-11-22T08:57:05.314Z,99.99
2023-11-22T08:58:05.311Z,99.99
2023-11-22T08:59:05.302Z,99.99
2023-11-22T09:00:05.297Z,99.99
2023-11-22T09:01:05.348Z,99.99
2023-11-22T09:02:05.284Z,99.99
2023-11-22T09:03:05.433Z,99.99
2023-11-22T09:04:05.317Z,99.99
2023-11-22T09:05:05.375Z,99.99
2023-11-22T09:06:05.260Z,99.99
2023-11-22T09:07:05.257Z,99.99
2023-11-22T09:08:12.305Z,99.99
2023-11-22T09:09:05.317Z,99.99
2023-11-22T09:10:05.333Z,99.99
2023-11-22T09:11:05.227Z,99.99
2023-11-22T09:12:05.222Z,99.99
2023-11-22T09:13:05.215Z,99.99
2023-11-22T09:14:05.210Z,99.99
2023-11-22T09:15:05.200Z,99.99
2023-11-22T09:16:05.199Z,99.99
2023-11-22T09:17:05.238Z,99.99
2023-11-22T09:18:05.238Z,99.99
2023-11-22T09:19:05.255Z,99.99
2023-11-22T09:20:05.174Z,99.99
2023-11-22T09:21:05.167Z,99.99
2023-11-22T09:22:05.160Z,99.99
2023-11-22T09:23:05.156Z,99.99
2023-11-22T09:24:05.147Z,99.99
2023-11-22T09:25:05.292Z,99.99
2023-11-22T09:26:05.151Z,99.99
2023-11-22T09:27:05.140Z,99.99
2023-11-22T09:28:05.130Z,99.99
2023-11-22T09:29:05.121Z,99.99
2023-11-22T09:30:05.124Z,99.99
2023-11-22T09:31:05.111Z,99.99
2023-11-22T09:32:05.099Z,99.99
2023-11-22T09:33:05.214Z,99.99
2023-11-22T09:34:05.097Z,99.99
2023-11-22T09:35:05.080Z,99.99
2023-11-22T09:36:07.246Z,99.99
2023-11-22T09:37:05.069Z,99.99
2023-11-22T09:38:05.063Z,99.99
2023-11-22T09:39:05.060Z,99.99
2023-11-22T09:40:05.539Z,99.99
2023-11-22T09:41:05.044Z,99.99
2023-11-22T09:42:05.040Z,99.99
2023-11-22T09:43:05.031Z,99.99
2023-11-22T09:44:05.026Z,99.99
2023-11-22T09:45:05.028Z,99.99
2023-11-22T09:46:05.056Z,99.99
2023-11-22T09:47:05.010Z,99.99
2023-11-22T09:48:05.091Z,99.99
2023-11-22T09:49:04.997Z,99.99
2023-11-22T09:50:04.994Z,99.99
2023-11-22T09:51:04.986Z,99.99
2023-11-22T09:52:04.996Z,99.99
2023-11-22T09:53:04.971Z,99.99
2023-11-22T09:54:04.968Z,99.99
2023-11-22T09:55:04.960Z,99.99
2023-11-22T09:56:04.974Z,99.99
2023-11-22T09:57:04.953Z,99.99
2023-11-22T09:58:04.944Z,99.99
2023-11-22T09:59:04.937Z,99.99
2023-11-22T10:00:04.933Z,99.99
2023-11-22T10:01:05.241Z,99.99
2023-11-22T10:02:04.971Z,99.99
2023-11-22T10:03:05.052Z,99.99
2023-11-22T10:04:05.081Z,99.99
2023-11-22T10:05:04.911Z,99.99
2023-11-22T10:06:04.900Z,99.99
2023-11-22T10:07:04.893Z,99.99
2023-11-22T10:08:04.891Z,99.99
2023-11-22T10:09:05.967Z,99.99
2023-11-22T10:10:04.876Z,99.99
2023-11-22T10:11:04.871Z,99.99
2023-11-22T10:12:04.871Z,99.99
2023-11-22T10:13:04.879Z,99.99
2023-11-22T10:14:04.863Z,99.99
2023-11-22T10:15:04.848Z,99.99
2023-11-22T10:16:04.885Z,99.99
2023-11-22T10:17:04.838Z,99.99
2023-11-22T10:18:04.901Z,99.99
2023-11-22T10:19:04.911Z,99.99
2023-11-22T10:20:04.829Z,99.99
2023-11-22T10:21:04.813Z,99.99
2023-11-22T10:22:05.004Z,99.99
2023-11-22T10:23:04.809Z,99.99
2023-11-22T10:24:05.255Z,99.99
2023-11-22T10:25:04.796Z,99.99
2023-11-22T10:26:04.788Z,99.99
2023-11-22T10:27:04.782Z,99.99
2023-11-22T10:28:04.780Z,99.99
2023-11-22T10:29:04.833Z,99.99
2023-11-22T10:30:04.770Z,99.99
2023-11-22T10:31:04.799Z,99.99
2023-11-22T10:32:04.768Z,99.99
2023-11-22T10:33:04.956Z,99.99
2023-11-22T10:34:04.772Z,99.99
2023-11-22T10:35:04.738Z,99.99
2023-11-22T10:36:04.733Z,99.99
2023-11-22T10:37:04.731Z,99.99
2023-11-22T10:38:04.723Z,99.99
2023-11-22T10:39:08.215Z,99.99
2023-11-22T10:40:04.721Z,99.99
2023-11-22T10:41:04.707Z,99.99
2023-11-22T10:42:04.704Z,99.99
2023-11-22T10:43:04.697Z,99.99
2023-11-22T10:44:04.692Z,99.99
2023-11-22T10:45:04.683Z,99.99
2023-11-22T10:46:04.719Z,99.99
2023-11-22T10:47:04.734Z,99.99
2023-11-22T10:48:04.802Z,99.99
2023-11-22T10:49:04.675Z,99.99
2023-11-22T10:50:04.662Z,99.99
2023-11-22T10:51:04.657Z,99.99
2023-11-22T10:52:04.655Z,99.99
2023-11-22T10:53:04.646Z,99.99
2023-11-22T10:54:05.102Z,99.99
2023-11-22T10:55:04.661Z,99.99
2023-11-22T10:56:07.838Z,99.99
2023-11-22T10:57:04.686Z,99.99
2023-11-22T10:58:04.647Z,99.99
2023-11-22T10:59:04.617Z,99.99
2023-11-22T11:00:04.609Z,99.99
2023-11-22T11:01:04.641Z,99.99
2023-11-22T11:02:07.900Z,99.99
2023-11-22T11:03:04.727Z,99.99
2023-11-22T11:04:04.697Z,99.99
2023-11-22T11:05:04.600Z,99.99
2023-11-22T11:06:04.578Z,99.99
2023-11-22T11:07:04.571Z,99.99
2023-11-22T11:08:04.573Z,99.99
2023-11-22T11:09:04.561Z,99.99
2023-11-22T11:10:13.057Z,99.99
2023-11-22T11:11:04.651Z,99.99
2023-11-22T11:12:06.783Z,99.99
2023-11-22T11:13:04.545Z,99.99
2023-11-22T11:14:04.540Z,99.99
2023-11-22T11:15:05.102Z,99.99
2023-11-22T11:16:04.535Z,99.99
2023-11-22T11:17:04.520Z,99.99
2023-11-22T11:18:06.149Z,99.99
2023-11-22T11:19:04.510Z,99.99
2023-11-22T11:20:04.504Z,99.99
2023-11-22T11:21:04.502Z,99.99
2023-11-22T11:22:04.499Z,99.99
2023-11-22T11:23:04.490Z,99.99
2023-11-22T11:24:04.750Z,99.99
2023-11-22T11:25:04.497Z,99.99
2023-11-22T11:26:04.479Z,99.99
2023-11-22T11:27:04.485Z,99.99
2023-11-22T11:28:04.466Z,99.99
2023-11-22T11:29:04.460Z,99.99
2023-11-22T11:30:04.468Z,99.99
2023-11-22T11:31:04.455Z,99.99
2023-11-22T11:32:04.511Z,99.99
2023-11-22T11:33:04.558Z,99.99
2023-11-22T11:34:05.185Z,99.99
2023-11-22T11:35:04.447Z,99.99
2023-11-22T11:36:04.442Z,99.99
2023-11-22T11:37:04.421Z,99.99
2023-11-22T11:38:04.443Z,99.99
2023-11-22T11:39:04.414Z,99.99
2023-11-22T11:40:04.443Z,99.99
2023-11-22T11:41:04.408Z,99.99
2023-11-22T11:42:04.426Z,99.99
2023-11-22T11:43:04.597Z,99.99
2023-11-22T11:44:04.424Z,99.99
2023-11-22T11:45:04.389Z,99.99
2023-11-22T11:46:04.410Z,99.99
2023-11-22T11:47:04.381Z,99.99
2023-11-22T11:48:04.453Z,99.99
2023-11-22T11:49:04.373Z,99.99
2023-11-22T11:50:04.392Z,99.99
2023-11-22T11:51:04.373Z,99.99
2023-11-22T11:52:04.366Z,99.99
2023-11-22T11:53:04.355Z,99.99
2023-11-22T11:54:04.487Z,99.99
2023-11-22T11:55:04.372Z,99.99
2023-11-22T11:56:04.366Z,99.99
2023-11-22T11:57:04.344Z,99.99
2023-11-22T11:58:04.349Z,99.99
2023-11-22T11:59:04.339Z,99.99
2023-11-22T12:00:04.411Z,99.99
2023-11-22T12:01:04.339Z,99.99
2023-11-22T12:02:04.361Z,99.99
2023-11-22T12:03:04.358Z,99.99
2023-11-22T12:04:04.551Z,99.99
2023-11-22T12:05:04.311Z,99.99
2023-11-22T12:06:04.328Z,99.99
2023-11-22T12:07:04.320Z,99.99
2023-11-22T12:08:04.309Z,99.99
2023-11-22T12:09:04.295Z,99.99
2023-11-22T12:10:04.292Z,99.99
2023-11-22T12:11:04.297Z,99.99
2023-11-22T12:12:04.292Z,99.99
2023-11-22T12:13:04.283Z,99.99
2023-11-22T12:14:04.283Z,99.99
2023-11-22T12:15:04.305Z,99.99
2023-11-22T12:16:04.272Z,99.99
2023-11-22T12:17:04.269Z,99.99
2023-11-22T12:18:04.468Z,99.99
2023-11-22T12:19:04.372Z,99.99
2023-11-22T12:20:04.260Z,99.99
2023-11-22T12:21:04.895Z,99.99
2023-11-22T12:22:04.258Z,99.99
2023-11-22T12:23:04.258Z,99.99
2023-11-22T12:24:04.253Z,99.99
2023-11-22T12:25:04.250Z,98.83
2023-11-22T12:26:04.249Z,99.46
2023-11-22T12:27:04.255Z,99.99
2023-11-22T12:28:04.248Z,99.99
2023-11-22T12:29:06.377Z,99.95
2023-11-22T12:30:04.236Z,99.99
2023-11-22T12:31:04.284Z,99.99
2023-11-22T12:32:04.239Z,99.90
2023-11-22T12:33:04.378Z,97.50
2023-11-22T12:34:04.228Z,96.97
2023-11-22T12:35:04.228Z,95.75
2023-11-22T12:36:04.237Z,97.07
2023-11-22T12:37:04.224Z,96.88
2023-11-22T12:38:04.276Z,96.72
2023-11-22T12:39:04.223Z,96.92
2023-11-22T12:40:04.226Z,97.90
2023-11-22T12:41:04.221Z,97.90
2023-11-22T12:42:09.563Z,97.71
2023-11-22T12:43:04.214Z,98.39
2023-11-22T12:44:04.286Z,98.00
2023-11-22T12:45:04.334Z,98.29
2023-11-22T12:46:04.210Z,99.07
2023-11-22T12:47:04.238Z,99.27
2023-11-22T12:48:04.335Z,98.58
2023-11-22T12:49:04.204Z,98.49
2023-11-22T12:50:04.208Z,98.19
2023-11-22T12:51:04.250Z,97.41
2023-11-22T12:52:04.217Z,97.95